createdAt,value
2023-08-17T00:00:34.797Z,78.863
2023-08-17T00:01:35.313Z,78.976
2023-08-17T00:02:34.834Z,79.176
2023-08-17T00:03:35.659Z,79.180
2023-08-17T00:05:35.351Z,78.968
2023-08-17T00:06:35.859Z,79.128
2023-08-17T00:07:35.980Z,79.071
2023-08-17T00:09:34.939Z,78.907
2023-08-17T00:10:35.441Z,79.161
2023-08-17T00:11:34.951Z,79.306
2023-08-17T00:12:35.385Z,78.899
2023-08-17T00:13:35.860Z,79.138
2023-08-17T00:14:35.302Z,79.281
2023-08-17T00:15:35.767Z,79.674
2023-08-17T00:16:35.381Z,79.302
2023-08-17T00:17:35.499Z,78.710
2023-08-17T00:18:35.030Z,79.782
2023-08-17T00:19:35.595Z,80.233
2023-08-17T00:20:35.032Z,80.444
2023-08-17T00:21:35.510Z,80.597
2023-08-17T00:22:35.166Z,80.618
2023-08-17T00:23:35.630Z,80.687
2023-08-17T00:24:35.066Z,80.822
2023-08-17T00:25:35.660Z,81.005
2023-08-17T00:27:36.054Z,81.255
2023-08-17T00:28:35.470Z,80.980
2023-08-17T00:29:34.977Z,81.043
2023-08-17T00:30:35.492Z,81.224
2023-08-17T00:31:35.036Z,81.415
2023-08-17T00:32:35.729Z,81.736
2023-08-17T00:33:35.234Z,82.058
2023-08-17T00:34:35.661Z,82.128
2023-08-17T00:35:35.099Z,82.266
2023-08-17T00:36:35.514Z,82.283
2023-08-17T00:37:35.387Z,82.319
2023-08-17T00:38:34.824Z,82.270
2023-08-17T00:39:35.340Z,82.413
2023-08-17T00:40:35.896Z,82.567
2023-08-17T00:41:35.487Z,82.579
2023-08-17T00:42:35.057Z,82.649
2023-08-17T00:43:35.685Z,82.630
2023-08-17T00:44:35.236Z,82.664
2023-08-17T00:45:36.079Z,82.832
2023-08-17T00:46:35.688Z,82.804
2023-08-17T00:47:35.158Z,82.739
2023-08-17T00:48:35.758Z,82.998
2023-08-17T00:49:35.367Z,82.931
2023-08-17T00:50:35.874Z,82.857
2023-08-17T00:51:35.495Z,82.823
2023-08-17T00:52:34.900Z,82.544
2023-08-17T00:53:35.352Z,82.611
2023-08-17T00:54:35.813Z,82.487
2023-08-17T00:55:35.543Z,82.581
2023-08-17T00:56:35.679Z,82.273
2023-08-17T00:57:35.323Z,82.701
2023-08-17T00:58:35.787Z,82.466
2023-08-17T00:59:40.528Z,82.741
2023-08-17T01:01:35.832Z,82.735
2023-08-17T01:02:35.000Z,82.703
2023-08-17T01:03:35.552Z,82.247
2023-08-17T01:04:35.014Z,82.809
2023-08-17T01:05:35.572Z,82.682
2023-08-17T01:06:34.992Z,82.731
2023-08-17T01:07:35.462Z,82.514
2023-08-17T01:08:34.918Z,82.491
2023-08-17T01:09:35.374Z,82.609
2023-08-17T01:10:35.786Z,83.034
2023-08-17T01:11:35.226Z,82.378
2023-08-17T01:12:35.702Z,83.103
2023-08-17T01:14:35.661Z,82.865
2023-08-17T01:15:35.252Z,82.470
2023-08-17T01:16:34.889Z,82.777
2023-08-17T01:17:35.870Z,82.573
2023-08-17T01:18:35.829Z,82.781
2023-08-17T01:20:34.984Z,82.838
2023-08-17T01:21:35.450Z,81.907
2023-08-17T01:22:34.838Z,82.388
2023-08-17T01:23:35.297Z,82.453
2023-08-17T01:24:35.847Z,82.714
2023-08-17T01:25:35.321Z,82.716
2023-08-17T01:26:35.817Z,83.179
2023-08-17T01:27:35.912Z,83.147
2023-08-17T01:29:35.853Z,83.391
2023-08-17T01:30:35.301Z,83.549
2023-08-17T01:31:35.904Z,83.467
2023-08-17T01:32:35.516Z,83.851
2023-08-17T01:33:35.086Z,83.374
2023-08-17T01:34:35.569Z,84.063
2023-08-17T01:37:35.402Z,84.534
2023-08-17T01:38:35.803Z,84.532
2023-08-17T01:39:35.252Z,84.383
2023-08-17T01:40:35.718Z,84.084
2023-08-17T01:42:35.650Z,84.904
2023-08-17T01:43:35.099Z,84.700
2023-08-17T01:44:35.608Z,85.222
2023-08-17T01:45:35.043Z,85.052
2023-08-17T01:46:35.643Z,85.297
2023-08-17T01:47:36.872Z,85.484
2023-08-17T01:48:35.489Z,85.463
2023-08-17T01:49:34.980Z,85.535
2023-08-17T01:50:35.615Z,85.064
2023-08-17T01:51:34.995Z,85.268
2023-08-17T01:52:35.479Z,85.325
2023-08-17T01:53:35.138Z,85.131
2023-08-17T01:54:35.611Z,84.162
2023-08-17T01:55:34.999Z,84.597
2023-08-17T01:56:35.436Z,83.429
2023-08-17T01:57:35.223Z,83.382
2023-08-17T01:58:35.718Z,83.206
2023-08-17T01:59:35.239Z,82.659
2023-08-17T02:00:35.739Z,83.040
2023-08-17T02:01:35.378Z,82.811
2023-08-17T02:02:36.103Z,82.636
2023-08-17T02:03:34.948Z,82.426
2023-08-17T02:04:35.387Z,82.363
2023-08-17T02:05:34.866Z,82.012
2023-08-17T02:06:35.496Z,81.705
2023-08-17T02:08:34.928Z,81.484
2023-08-17T02:09:36.034Z,81.446
2023-08-17T02:10:35.483Z,81.411
2023-08-17T02:11:34.971Z,81.253
2023-08-17T02:12:35.406Z,81.245
2023-08-17T02:13:35.843Z,81.188
2023-08-17T02:14:35.281Z,81.308
2023-08-17T02:15:35.831Z,81.381
2023-08-17T02:16:35.528Z,81.348
2023-08-17T02:17:35.557Z,81.449
2023-08-17T02:19:35.427Z,81.556
2023-08-17T02:20:34.856Z,81.615
2023-08-17T02:21:35.298Z,81.589
2023-08-17T02:22:35.798Z,81.852
2023-08-17T02:23:35.371Z,82.001
2023-08-17T02:24:35.805Z,81.907
2023-08-17T02:25:35.488Z,81.922
2023-08-17T02:26:34.862Z,81.943
2023-08-17T02:27:35.696Z,81.980
2023-08-17T02:28:35.204Z,81.907
2023-08-17T02:29:35.695Z,82.056
2023-08-17T02:30:35.412Z,82.022
2023-08-17T02:31:35.020Z,82.134
2023-08-17T02:32:35.626Z,82.048
2023-08-17T02:33:35.219Z,82.062
2023-08-17T02:34:35.654Z,81.894
2023-08-17T02:35:35.098Z,82.243
2023-08-17T02:36:36.270Z,82.262
2023-08-17T02:37:35.626Z,82.230
2023-08-17T02:38:35.072Z,82.464
2023-08-17T02:39:35.784Z,82.422
2023-08-17T02:40:35.231Z,82.657
2023-08-17T02:41:35.816Z,82.628
2023-08-17T02:42:35.317Z,82.699
2023-08-17T02:43:35.746Z,82.788
2023-08-17T02:44:35.168Z,82.624
2023-08-17T02:45:35.691Z,82.870
2023-08-17T02:46:35.397Z,82.849
2023-08-17T02:47:35.845Z,82.764
2023-08-17T02:48:36.090Z,82.775
2023-08-17T02:50:35.059Z,83.233
2023-08-17T02:52:35.274Z,83.332
2023-08-17T02:53:35.997Z,83.433
2023-08-17T02:54:35.427Z,83.429
2023-08-17T02:55:34.851Z,83.239
2023-08-17T02:56:35.341Z,83.239
2023-08-17T02:57:35.787Z,83.416
2023-08-17T02:58:35.170Z,83.336
2023-08-17T02:59:35.657Z,83.338
2023-08-17T03:00:35.123Z,83.677
2023-08-17T03:01:35.697Z,83.673
2023-08-17T03:02:35.529Z,83.723
2023-08-17T03:03:35.638Z,83.584
2023-08-17T03:04:35.241Z,83.681
2023-08-17T03:05:35.684Z,83.672
2023-08-17T03:06:35.175Z,83.612
2023-08-17T03:07:35.778Z,83.750
2023-08-17T03:08:35.211Z,83.637
2023-08-17T03:09:35.685Z,84.032
2023-08-17T03:10:35.068Z,83.666
2023-08-17T03:14:35.251Z,83.817
2023-08-17T03:15:36.015Z,84.270
2023-08-17T03:16:35.909Z,84.177
2023-08-17T03:17:35.595Z,84.063
2023-08-17T03:18:35.367Z,84.408
2023-08-17T03:19:35.482Z,83.887
2023-08-17T03:20:34.992Z,84.335
2023-08-17T03:21:35.573Z,84.276
2023-08-17T03:22:35.022Z,84.303
2023-08-17T03:23:35.494Z,84.419
2023-08-17T03:25:35.335Z,84.225
2023-08-17T03:26:34.951Z,83.975
2023-08-17T03:27:35.921Z,84.112
2023-08-17T03:29:35.058Z,84.398
2023-08-17T03:30:35.713Z,84.763
2023-08-17T03:31:35.268Z,84.841
2023-08-17T03:33:35.221Z,85.039
2023-08-17T03:34:35.739Z,84.631
2023-08-17T03:35:35.491Z,85.115
2023-08-17T03:36:34.938Z,84.883
2023-08-17T03:37:35.922Z,84.652
2023-08-17T03:38:35.606Z,85.016
2023-08-17T03:41:34.932Z,85.403
2023-08-17T03:42:35.517Z,85.520
2023-08-17T03:43:35.008Z,85.155
2023-08-17T03:44:35.499Z,85.512
2023-08-17T03:45:34.900Z,85.529
2023-08-17T03:46:35.690Z,85.278
2023-08-17T03:47:35.631Z,85.085
2023-08-17T03:48:35.205Z,85.415
2023-08-17T03:49:35.667Z,85.661
2023-08-17T03:50:35.225Z,85.455
2023-08-17T03:51:35.757Z,85.859
2023-08-17T03:52:35.224Z,85.619
2023-08-17T03:53:35.682Z,85.917
2023-08-17T03:54:35.136Z,85.674
2023-08-17T03:55:35.580Z,85.758
2023-08-17T03:56:35.035Z,86.008
2023-08-17T03:57:39.536Z,86.048
2023-08-17T03:58:35.390Z,86.212
2023-08-17T03:59:35.784Z,85.930
2023-08-17T04:00:35.485Z,85.863
2023-08-17T04:01:35.105Z,85.913
2023-08-17T04:02:35.896Z,86.369
2023-08-17T04:03:35.414Z,86.374
2023-08-17T04:06:35.060Z,86.382
2023-08-17T04:07:36.067Z,86.700
2023-08-17T04:08:35.545Z,86.006
2023-08-17T04:09:34.979Z,86.554
2023-08-17T04:10:35.428Z,86.330
2023-08-17T04:11:34.981Z,85.773
2023-08-17T04:12:35.475Z,86.084
2023-08-17T04:13:36.393Z,86.716
2023-08-17T04:15:35.465Z,86.647
2023-08-17T04:16:35.092Z,86.952
2023-08-17T04:17:36.252Z,86.697
2023-08-17T04:18:35.879Z,86.796
2023-08-17T04:20:35.226Z,86.887
2023-08-17T04:21:35.870Z,86.931
2023-08-17T04:22:35.291Z,86.731
2023-08-17T04:23:35.717Z,86.540
2023-08-17T04:24:35.307Z,86.735
2023-08-17T04:25:35.782Z,86.897
2023-08-17T04:26:35.220Z,86.790
2023-08-17T04:27:35.771Z,86.823
2023-08-17T04:28:35.263Z,86.453
2023-08-17T04:29:35.836Z,86.514
2023-08-17T04:30:35.281Z,87.067
2023-08-17T04:31:35.994Z,87.019
2023-08-17T04:33:35.416Z,87.278
2023-08-17T04:34:35.887Z,87.259
2023-08-17T04:35:35.400Z,87.128
2023-08-17T04:36:34.927Z,87.576
2023-08-17T04:37:35.820Z,87.936
2023-08-17T04:38:35.270Z,87.977
2023-08-17T04:39:35.811Z,87.820
2023-08-17T04:40:35.315Z,87.879
2023-08-17T04:42:35.356Z,87.936
2023-08-17T04:43:35.891Z,87.742
2023-08-17T04:44:35.397Z,87.990
2023-08-17T04:45:36.178Z,88.163
2023-08-17T04:46:34.892Z,87.990
2023-08-17T04:47:35.738Z,87.626
2023-08-17T04:48:35.356Z,88.379
2023-08-17T04:49:35.720Z,88.339
2023-08-17T04:50:35.368Z,88.221
2023-08-17T04:51:35.879Z,88.425
2023-08-17T04:53:35.718Z,88.142
2023-08-17T04:54:35.165Z,88.400
2023-08-17T04:55:35.764Z,88.087
2023-08-17T04:56:35.194Z,88.108
2023-08-17T04:57:35.581Z,88.245
2023-08-17T04:58:35.424Z,88.280
2023-08-17T04:59:34.831Z,88.438
2023-08-17T05:00:35.256Z,88.608
2023-08-17T05:01:36.046Z,88.371
2023-08-17T05:02:35.594Z,88.284
2023-08-17T05:03:40.908Z,88.219
2023-08-17T05:04:35.517Z,88.007
2023-08-17T05:08:35.709Z,86.865
2023-08-17T05:09:35.171Z,86.458
2023-08-17T05:10:35.796Z,86.367
2023-08-17T05:11:35.420Z,86.859
2023-08-17T05:12:34.985Z,87.303
2023-08-17T05:13:35.426Z,87.217
2023-08-17T05:14:35.847Z,86.309
2023-08-17T05:15:35.477Z,85.388
2023-08-17T05:16:34.957Z,84.642
2023-08-17T05:17:35.823Z,84.198
2023-08-17T05:19:35.774Z,83.410
2023-08-17T05:20:35.333Z,83.078
2023-08-17T05:21:35.727Z,82.918
2023-08-17T05:22:35.192Z,83.012
2023-08-17T05:23:35.644Z,83.443
2023-08-17T05:24:35.119Z,82.687
2023-08-17T05:25:35.562Z,82.390
2023-08-17T05:26:34.974Z,82.195
2023-08-17T05:27:35.909Z,82.003
2023-08-17T05:28:35.358Z,81.737
2023-08-17T05:29:35.780Z,80.994
2023-08-17T05:30:35.350Z,80.263
2023-08-17T05:31:35.962Z,80.082
2023-08-17T05:32:35.482Z,80.088
2023-08-17T05:33:34.950Z,79.630
2023-08-17T05:34:35.414Z,79.279
2023-08-17T05:35:35.889Z,79.044
2023-08-17T05:36:35.319Z,78.905
2023-08-17T05:37:36.164Z,77.827
2023-08-17T05:38:35.550Z,77.261
2023-08-17T05:39:37.882Z,76.368
2023-08-17T05:42:35.396Z,76.181
2023-08-17T05:43:36.129Z,75.561
2023-08-17T05:44:35.744Z,77.072
2023-08-17T05:45:35.312Z,76.570
2023-08-17T05:46:35.140Z,75.123
2023-08-17T05:47:34.933Z,74.505
2023-08-17T05:48:35.664Z,74.003
2023-08-17T05:49:35.101Z,73.074
2023-08-17T05:50:35.594Z,69.790
2023-08-17T05:51:35.043Z,71.903
2023-08-17T05:52:35.441Z,69.593
2023-08-17T05:53:34.918Z,70.778
2023-08-17T05:54:35.344Z,72.307
2023-08-17T05:55:35.917Z,70.064
2023-08-17T05:56:35.411Z,71.190
2023-08-17T05:57:35.818Z,71.527
2023-08-17T05:58:35.244Z,68.584
2023-08-17T06:00:35.785Z,70.026
2023-08-17T06:01:35.298Z,68.908
2023-08-17T06:02:35.925Z,69.917
2023-08-17T06:03:36.022Z,70.505
2023-08-17T06:04:35.530Z,68.119
2023-08-17T06:05:35.011Z,70.539
2023-08-17T06:06:35.398Z,70.465
2023-08-17T06:07:35.440Z,69.278
2023-08-17T06:08:34.856Z,70.732
2023-08-17T06:09:36.659Z,70.259
2023-08-17T06:10:35.213Z,69.637
2023-08-17T06:11:35.660Z,69.910
2023-08-17T06:12:35.110Z,68.376
2023-08-17T06:13:35.493Z,66.164
2023-08-17T06:14:34.894Z,66.757
2023-08-17T06:15:35.566Z,66.980
2023-08-17T06:16:35.104Z,68.702
2023-08-17T06:17:36.452Z,68.659
2023-08-17T06:18:35.049Z,67.840
2023-08-17T06:19:35.623Z,70.234
2023-08-17T06:21:35.453Z,70.661
2023-08-17T06:22:35.095Z,71.359
2023-08-17T06:23:35.554Z,71.001
2023-08-17T06:26:35.008Z,72.138
2023-08-17T06:27:35.983Z,71.842
2023-08-17T06:28:35.433Z,70.213
2023-08-17T06:29:35.852Z,69.877
2023-08-17T06:30:35.318Z,69.044
2023-08-17T06:31:34.881Z,69.523
2023-08-17T06:32:35.490Z,69.320
2023-08-17T06:33:35.128Z,68.557
2023-08-17T06:34:38.105Z,68.269
2023-08-17T06:36:34.999Z,68.351
2023-08-17T06:37:35.713Z,68.327
2023-08-17T06:38:35.138Z,68.102
2023-08-17T06:39:37.336Z,67.919
2023-08-17T06:40:35.737Z,66.923
2023-08-17T06:41:35.105Z,67.774
2023-08-17T06:42:35.540Z,66.955
2023-08-17T06:43:35.012Z,66.770
2023-08-17T06:44:35.412Z,66.894
2023-08-17T06:45:35.022Z,67.362
2023-08-17T06:46:35.601Z,66.978
2023-08-17T06:47:35.928Z,66.498
2023-08-17T06:49:34.944Z,66.292
2023-08-17T06:50:35.390Z,66.766
2023-08-17T06:51:35.823Z,66.553
2023-08-17T06:52:35.236Z,67.947
2023-08-17T06:53:35.666Z,67.190
2023-08-17T06:54:35.118Z,68.376
2023-08-17T06:55:35.985Z,68.716
2023-08-17T06:56:36.659Z,67.806
2023-08-17T06:57:35.480Z,67.373
2023-08-17T06:58:34.970Z,66.803
2023-08-17T06:59:35.472Z,67.632
2023-08-17T07:02:54.539Z,68.544
2023-08-17T07:03:35.092Z,68.304
2023-08-17T07:04:36.121Z,67.657
2023-08-17T07:05:35.792Z,68.300
2023-08-17T07:07:35.996Z,68.004
2023-08-17T07:08:35.431Z,67.302
2023-08-17T07:09:35.046Z,66.581
2023-08-17T07:10:35.518Z,66.711
2023-08-17T07:11:34.938Z,66.692
2023-08-17T07:12:36.017Z,66.959
2023-08-17T07:13:35.413Z,66.406
2023-08-17T07:16:35.127Z,65.347
2023-08-17T07:17:36.501Z,65.633
2023-08-17T07:18:35.978Z,64.399
2023-08-17T07:20:13.652Z,64.821
2023-08-17T07:21:35.130Z,64.338
2023-08-17T07:22:35.647Z,64.066
2023-08-17T07:23:35.079Z,63.423
2023-08-17T07:24:35.532Z,63.255
2023-08-17T07:25:35.047Z,61.823
2023-08-17T07:26:35.499Z,62.322
2023-08-17T07:27:35.685Z,61.832
2023-08-17T07:28:35.091Z,60.808
2023-08-17T07:29:35.577Z,61.885
2023-08-17T07:30:35.100Z,61.882
2023-08-17T07:31:35.729Z,62.423
2023-08-17T07:32:35.649Z,62.090
2023-08-17T07:33:35.380Z,60.405
2023-08-17T07:34:35.890Z,60.440
2023-08-17T07:35:35.335Z,61.933
2023-08-17T07:36:35.775Z,59.612
2023-08-17T07:38:35.208Z,59.663
2023-08-17T07:39:35.799Z,60.062
2023-08-17T07:40:35.295Z,61.264
2023-08-17T07:41:36.922Z,59.530
2023-08-17T07:42:36.954Z,59.099
2023-08-17T07:44:35.100Z,57.609
2023-08-17T07:45:35.576Z,59.064
2023-08-17T07:46:35.309Z,58.355
2023-08-17T07:47:37.391Z,57.914
2023-08-17T07:49:40.549Z,57.735
2023-08-17T07:52:34.921Z,58.698
2023-08-17T07:53:35.338Z,57.649
2023-08-17T07:54:35.791Z,56.425
2023-08-17T07:56:35.798Z,56.255
2023-08-17T07:57:35.754Z,56.556
2023-08-17T07:58:35.166Z,55.038
2023-08-17T07:59:35.630Z,54.962
2023-08-17T08:00:35.044Z,55.034
2023-08-17T08:01:35.767Z,54.090
2023-08-17T08:02:35.553Z,54.136
2023-08-17T08:03:35.198Z,53.485
2023-08-17T08:04:35.683Z,53.926
2023-08-17T08:05:35.340Z,53.194
2023-08-17T08:08:35.533Z,53.110
2023-08-17T08:09:35.023Z,53.623
2023-08-17T08:10:35.538Z,54.538
2023-08-17T08:11:35.064Z,55.463
2023-08-17T08:12:35.546Z,54.098
2023-08-17T08:13:35.012Z,53.840
2023-08-17T08:14:35.484Z,54.508
2023-08-17T08:15:35.177Z,55.282
2023-08-17T08:16:35.956Z,54.489
2023-08-17T08:17:36.704Z,56.284
2023-08-17T08:18:35.333Z,54.966
2023-08-17T08:19:36.057Z,54.294
2023-08-17T08:20:35.525Z,53.430
2023-08-17T08:21:35.035Z,52.782
2023-08-17T08:22:35.531Z,53.297
2023-08-17T08:24:45.913Z,52.513
2023-08-17T08:25:35.477Z,52.850
2023-08-17T08:27:35.399Z,51.277
2023-08-17T08:28:35.425Z,51.399
2023-08-17T08:29:35.829Z,51.774
2023-08-17T08:30:35.315Z,52.841
2023-08-17T08:31:35.987Z,52.171
2023-08-17T08:32:38.498Z,51.115
2023-08-17T08:33:35.001Z,51.321
2023-08-17T08:34:35.456Z,51.612
2023-08-17T08:37:35.640Z,50.792
2023-08-17T08:38:35.157Z,51.042
2023-08-17T08:39:35.737Z,49.922
2023-08-17T08:40:35.199Z,51.046
2023-08-17T08:41:35.661Z,49.816
2023-08-17T08:43:35.748Z,48.700
2023-08-17T08:44:35.194Z,49.188
2023-08-17T08:45:35.969Z,49.116
2023-08-17T08:46:35.611Z,49.171
2023-08-17T08:47:35.479Z,49.125
2023-08-17T08:50:35.310Z,49.144
2023-08-17T08:51:35.785Z,49.188
2023-08-17T08:52:35.350Z,48.007
2023-08-17T08:53:40.834Z,50.514
2023-08-17T08:54:40.259Z,49.655
2023-08-17T08:56:35.065Z,50.022
2023-08-17T08:57:36.001Z,50.083
2023-08-17T08:58:35.569Z,49.982
2023-08-17T08:59:35.071Z,49.417
2023-08-17T09:00:35.633Z,48.114
2023-08-17T09:01:35.311Z,47.840
2023-08-17T09:02:34.869Z,47.769
2023-08-17T09:03:35.434Z,48.068
2023-08-17T09:04:34.938Z,47.868
2023-08-17T09:05:35.796Z,46.516
2023-08-17T09:06:35.281Z,46.485
2023-08-17T09:07:35.862Z,46.907
2023-08-17T09:08:35.488Z,47.557
2023-08-17T09:09:35.853Z,47.395
2023-08-17T09:10:42.399Z,47.807
2023-08-17T09:14:35.439Z,47.960
2023-08-17T09:15:34.905Z,46.579
2023-08-17T09:16:35.756Z,46.567
2023-08-17T09:17:35.588Z,46.916
2023-08-17T09:18:40.663Z,45.606
2023-08-17T09:19:35.154Z,47.214
2023-08-17T09:20:35.705Z,46.541
2023-08-17T09:21:35.765Z,45.951
2023-08-17T09:22:35.204Z,45.345
2023-08-17T09:23:39.731Z,46.346
2023-08-17T09:24:35.176Z,46.420
2023-08-17T09:25:35.681Z,45.995
2023-08-17T09:26:35.628Z,45.766
2023-08-17T09:27:35.339Z,45.698
2023-08-17T09:28:38.521Z,46.077
2023-08-17T09:29:35.011Z,46.445
2023-08-17T09:30:35.712Z,46.386
2023-08-17T09:32:35.538Z,46.295
2023-08-17T09:33:35.091Z,45.238
2023-08-17T09:34:35.523Z,45.650
2023-08-17T09:35:37.239Z,46.686
2023-08-17T09:36:35.691Z,46.264
2023-08-17T09:37:35.196Z,44.927
2023-08-17T09:38:35.668Z,43.111
2023-08-17T09:39:36.021Z,42.793
2023-08-17T09:40:35.454Z,43.695
2023-08-17T09:41:37.383Z,44.017
2023-08-17T09:42:35.790Z,43.798
2023-08-17T09:43:35.661Z,44.425
2023-08-17T09:45:35.715Z,44.463
2023-08-17T09:46:35.335Z,43.062
2023-08-17T09:47:34.892Z,44.881
2023-08-17T09:48:38.295Z,42.251
2023-08-17T09:49:40.719Z,42.610
2023-08-17T09:51:35.789Z,43.828
2023-08-17T09:52:36.280Z,44.601
2023-08-17T09:53:35.740Z,43.353
2023-08-17T09:54:35.269Z,43.149
2023-08-17T09:55:35.762Z,42.888
2023-08-17T09:56:35.312Z,43.334
2023-08-17T09:57:35.904Z,45.659
2023-08-17T09:58:37.521Z,43.237
2023-08-17T09:59:39.486Z,42.262
2023-08-17T10:00:35.876Z,41.747
2023-08-17T10:01:35.852Z,41.690
2023-08-17T10:02:35.641Z,42.600
2023-08-17T10:03:35.208Z,43.241
2023-08-17T10:04:35.968Z,41.551
2023-08-17T10:05:35.797Z,42.812
2023-08-17T10:07:39.080Z,40.931
2023-08-17T10:10:34.990Z,41.545
2023-08-17T10:11:35.423Z,43.506
2023-08-17T10:12:35.918Z,41.684
2023-08-17T10:13:35.542Z,41.395
2023-08-17T10:15:35.503Z,39.872
2023-08-17T10:16:36.349Z,39.993
2023-08-17T10:17:35.128Z,40.468
2023-08-17T10:18:35.735Z,39.550
2023-08-17T10:19:35.261Z,38.995
2023-08-17T10:20:35.784Z,39.022
2023-08-17T10:21:35.255Z,38.881
2023-08-17T10:22:36.075Z,38.791
2023-08-17T10:23:35.440Z,40.235
2023-08-17T10:26:36.034Z,39.884
2023-08-17T10:27:35.742Z,38.543
2023-08-17T10:28:35.167Z,39.684
2023-08-17T10:29:35.711Z,40.357
2023-08-17T10:30:35.202Z,40.044
2023-08-17T10:31:35.863Z,40.275
2023-08-17T10:32:36.066Z,39.830
2023-08-17T10:33:35.678Z,38.772
2023-08-17T10:36:35.278Z,39.121
2023-08-17T10:37:35.789Z,39.087
2023-08-17T10:38:35.191Z,39.657
2023-08-17T10:39:39.128Z,39.594
2023-08-17T10:40:35.449Z,39.792
2023-08-17T10:42:36.182Z,39.043
2023-08-17T10:43:35.732Z,38.163
2023-08-17T10:44:35.484Z,40.452
2023-08-17T10:45:44.274Z,38.289
2023-08-17T10:46:40.783Z,37.757
2023-08-17T10:47:40.404Z,37.544
2023-08-17T10:48:39.920Z,37.618
2023-08-17T10:50:35.904Z,38.528
2023-08-17T10:51:35.251Z,37.294
2023-08-17T10:52:36.155Z,38.146
2023-08-17T10:53:35.617Z,38.495
2023-08-17T10:54:35.270Z,37.845
2023-08-17T10:55:35.823Z,37.601
2023-08-17T10:56:35.338Z,37.070
2023-08-17T10:57:35.795Z,36.983
2023-08-17T10:58:35.240Z,36.086
2023-08-17T10:59:35.802Z,37.982
2023-08-17T11:00:35.341Z,37.572
2023-08-17T11:01:36.042Z,38.104
2023-08-17T11:02:40.601Z,40.216
2023-08-17T11:04:40.583Z,39.579
2023-08-17T11:05:39.543Z,38.764
2023-08-17T11:06:38.815Z,38.600
2023-08-17T11:07:40.688Z,37.351
2023-08-17T11:08:35.411Z,37.490
2023-08-17T11:09:37.664Z,38.516
2023-08-17T11:10:35.401Z,37.126
2023-08-17T11:11:34.911Z,36.950
2023-08-17T11:12:35.824Z,40.101
2023-08-17T11:13:35.371Z,39.020
2023-08-17T11:14:34.933Z,38.648
2023-08-17T11:15:35.492Z,39.422
2023-08-17T11:16:35.281Z,38.863
2023-08-17T11:17:35.030Z,38.736
2023-08-17T11:18:35.695Z,37.824
2023-08-17T11:19:35.127Z,36.432
2023-08-17T11:20:35.598Z,36.655
2023-08-17T11:21:35.056Z,37.383
2023-08-17T11:22:36.435Z,37.509
2023-08-17T11:23:35.745Z,37.423
2023-08-17T11:25:40.787Z,35.295
2023-08-17T11:26:40.321Z,36.332
2023-08-17T11:28:35.154Z,35.569
2023-08-17T11:29:35.499Z,34.345
2023-08-17T11:30:34.900Z,35.043
2023-08-17T11:31:35.534Z,36.470
2023-08-17T11:32:35.936Z,35.899
2023-08-17T11:33:35.563Z,36.300
2023-08-17T11:36:34.948Z,36.981
2023-08-17T11:37:35.675Z,35.318
2023-08-17T11:38:35.238Z,34.459
2023-08-17T11:39:35.820Z,35.411
2023-08-17T11:40:35.267Z,35.316
2023-08-17T11:41:35.693Z,38.633
2023-08-17T11:42:35.800Z,37.889
2023-08-17T11:43:35.471Z,39.708
2023-08-17T11:45:37.857Z,41.084
2023-08-17T11:46:35.680Z,40.340
2023-08-17T11:47:40.280Z,41.059
2023-08-17T11:48:40.757Z,41.198
2023-08-17T11:49:40.650Z,38.999
2023-08-17T11:51:35.921Z,39.529
2023-08-17T11:52:35.764Z,42.707
2023-08-17T11:53:35.481Z,41.974
2023-08-17T11:54:35.258Z,39.743
2023-08-17T11:55:35.706Z,39.960
2023-08-17T11:56:35.147Z,40.462
2023-08-17T11:57:35.652Z,41.660
2023-08-17T11:58:35.119Z,40.483
2023-08-17T11:59:35.552Z,40.399
2023-08-17T12:00:35.347Z,38.724
2023-08-17T12:01:35.932Z,39.159
2023-08-17T12:02:36.057Z,39.697
2023-08-17T12:03:35.907Z,38.867
2023-08-17T12:04:35.879Z,37.738
2023-08-17T12:05:35.310Z,40.824
2023-08-17T12:06:35.838Z,39.327
2023-08-17T12:07:35.477Z,40.242
2023-08-17T12:09:35.742Z,40.727
2023-08-17T12:10:35.178Z,42.541
2023-08-17T12:11:35.735Z,41.641
2023-08-17T12:12:35.541Z,41.423
2023-08-17T12:14:35.587Z,40.311
2023-08-17T12:15:35.058Z,40.101
2023-08-17T12:16:35.665Z,39.556
2023-08-17T12:17:35.381Z,40.897
2023-08-17T12:18:34.973Z,41.166
2023-08-17T12:19:35.710Z,40.227
2023-08-17T12:20:35.171Z,41.343
2023-08-17T12:21:35.538Z,41.158
2023-08-17T12:22:35.913Z,42.299
2023-08-17T12:23:35.480Z,41.515
2023-08-17T12:24:35.100Z,41.202
2023-08-17T12:25:35.595Z,41.044
2023-08-17T12:26:36.978Z,40.513
2023-08-17T12:27:35.516Z,41.454
2023-08-17T12:29:36.952Z,42.203
2023-08-17T12:30:35.483Z,40.775
2023-08-17T12:31:35.025Z,39.827
2023-08-17T12:32:36.273Z,38.240
2023-08-17T12:33:34.894Z,38.083
2023-08-17T12:34:35.461Z,38.644
2023-08-17T12:35:35.149Z,39.247
2023-08-17T12:36:35.727Z,38.938
2023-08-17T12:37:34.861Z,41.417
2023-08-17T12:38:35.858Z,39.878
2023-08-17T12:39:35.382Z,38.863
2023-08-17T12:40:35.886Z,39.686
2023-08-17T12:41:35.500Z,41.013
2023-08-17T12:42:35.320Z,40.260
2023-08-17T12:43:35.877Z,40.744
2023-08-17T12:44:35.393Z,41.509
2023-08-17T12:45:38.409Z,42.264
2023-08-17T12:46:34.979Z,41.993
2023-08-17T12:47:40.477Z,41.992
2023-08-17T12:48:39.174Z,41.513
2023-08-17T12:50:35.380Z,42.865
2023-08-17T12:51:35.801Z,44.610
2023-08-17T12:52:35.833Z,43.775
2023-08-17T12:53:35.340Z,45.532
2023-08-17T12:54:34.846Z,45.530
2023-08-17T12:55:35.289Z,44.048
2023-08-17T12:56:35.788Z,44.179
2023-08-17T12:57:35.293Z,44.233
2023-08-17T12:58:34.968Z,44.248
2023-08-17T12:59:35.527Z,44.937
2023-08-17T13:00:35.016Z,44.547
2023-08-17T13:01:35.696Z,44.971
2023-08-17T13:02:36.584Z,45.188
2023-08-17T13:04:34.991Z,42.695
2023-08-17T13:05:45.893Z,41.335
2023-08-17T13:07:42.322Z,43.336
2023-08-17T13:09:35.608Z,44.099
2023-08-17T13:10:35.261Z,43.537
2023-08-17T13:11:35.756Z,43.907
2023-08-17T13:12:35.733Z,43.855
2023-08-17T13:13:35.180Z,43.847
2023-08-17T13:14:35.632Z,43.063
2023-08-17T13:15:35.111Z,41.869
2023-08-17T13:16:35.765Z,41.044
2023-08-17T13:17:35.544Z,42.186
2023-08-17T13:19:35.847Z,42.085
2023-08-17T13:20:35.315Z,42.373
2023-08-17T13:21:35.748Z,44.149
2023-08-17T13:22:35.663Z,45.135
2023-08-17T13:23:35.116Z,44.069
2023-08-17T13:24:35.625Z,44.166
2023-08-17T13:25:35.114Z,42.415
2023-08-17T13:26:35.562Z,42.262
2023-08-17T13:27:35.769Z,41.885
2023-08-17T13:28:35.216Z,41.263
2023-08-17T13:29:35.816Z,41.948
2023-08-17T13:30:35.258Z,42.009
2023-08-17T13:31:35.786Z,42.241
2023-08-17T13:32:36.752Z,42.390
2023-08-17T13:33:35.935Z,41.639
2023-08-17T13:34:34.939Z,41.555
2023-08-17T13:35:35.434Z,41.454
2023-08-17T13:36:34.982Z,41.097
2023-08-17T13:37:35.287Z,39.699
2023-08-17T13:38:35.760Z,39.304
2023-08-17T13:39:35.201Z,38.892
2023-08-17T13:40:35.762Z,38.810
2023-08-17T13:41:35.308Z,37.709
2023-08-17T13:42:36.340Z,38.196
2023-08-17T13:43:35.069Z,36.576
2023-08-17T13:44:35.557Z,36.151
2023-08-17T13:45:35.022Z,36.826
2023-08-17T13:46:35.235Z,36.746
2023-08-17T13:47:36.099Z,36.218
2023-08-17T13:48:35.823Z,36.765
2023-08-17T13:49:35.433Z,37.153
2023-08-17T13:51:35.654Z,38.047
2023-08-17T13:52:35.483Z,38.232
2023-08-17T13:53:35.175Z,37.317
2023-08-17T13:54:35.766Z,38.047
2023-08-17T13:56:36.598Z,40.582
2023-08-17T13:57:35.149Z,39.056
2023-08-17T13:58:35.226Z,38.812
2023-08-17T13:59:35.696Z,37.545
2023-08-17T14:00:35.338Z,37.467
2023-08-17T14:01:36.282Z,38.535
2023-08-17T14:02:38.120Z,38.669
2023-08-17T14:03:35.712Z,39.459
2023-08-17T14:04:35.684Z,40.023